Řízení letového provozu České republiky
Letiste: LKLN Aktualizace: 21.10.2018 00:00:06  UTC
 METAR LKLN 21.10. 00:00 ...
METAR LKLN 210000Z AUTO VRB01KT 9999 SCT059 OVC130 06/04 Q1029=